CheckWX is a tool to help pilots better visualize weather data.  It is not intended as a substitute for an official pre-flight weather briefing.

16:59:05 UTC

FKKD TAF
Douala International Airport
Douala, Cameroon
TAF FKKD 181100Z 1812/1918 VRB03KT 8000 BKN014 FEW016CB TEMPO 1818/1906 TS PROB30 4000 TSRA BKN013 FEW016CB

Jun-18@
12:00 UTC

Jun-18 @ 12:00 UTC

Jun-19@
18:00 UTC

Jun-19 @ 18:00 UTC

TAF FKKD 181100Z 1812/1918 VRB03KT 8000 BKN014 FEW016CB
Wind
  • Variable at 3 KTS
Cloud Levels
  • Broken at 1,400' AGL
  • Few at 1,600' AGL

Jun-18@
12:00 UTC

Jun-18 @ 12:00 UTC

Jun-19@
18:00 UTC

Jun-19 @ 18:00 UTC

Probable - 30% Likelihood

Probable - 30% Likelihood during this time.

Conditions
Thunderstorm, Rain
Cloud Levels
  • Broken at 1,300' AGL
  • Few at 1,600' AGL

Jun-18@
18:00 UTC

Jun-18 @ 18:00 UTC

Jun-19@
06:00 UTC

Jun-19 @ 06:00 UTC

TEMPO 1818/1906 TS

Temporary

Temporary Changes expected for less than half the time period

Conditions
Thunderstorm